ALK884 VCBI-ZGGG
Flight info
| Callsign | ALK884 |
|---|---|
| Flight time | N/A |
| Altitude | 39000 |
| Route | DORTA1D ESPAP P762 DWI L301 BKK Y20 KRT B460 SAV A202 VILAO/K0841F390 A202 ASSAD/K0843S1190 A202 SIKOU/N0454F390 A202 BIGEX A461 IDUMA IDUMA9 |
| Aircraft | A333/H-SDE3GHIJ2J3J5M1RVWXY/LB2D1 |
Departure
| Time | N/A |
|---|---|
| Airport | Bandaranaike International Colombo Airport (VCBI) |
Arrival
| Time | 2026-05-01 12:18 |
|---|---|
| Airport | Guangzhou Baiyun International Airport (ZGGG) |
| Time | Latitude | Longitude | Altitude | Speed | Heading |
|---|---|---|---|---|---|
| 2026-05-01 07:23 | 7.61470 | 81.29290 | 28303 ft | 461 kts | 70° |
| 2026-05-01 07:23 | 7.63832 | 81.35329 | 28867 ft | 465 kts | 70° |
| 2026-05-01 07:24 | 7.65020 | 81.38370 | 29137 ft | 467 kts | 70° |
| 2026-05-01 07:24 | 7.66214 | 81.41425 | 29389 ft | 469 kts | 70° |
| 2026-05-01 07:24 | 7.67413 | 81.44494 | 29655 ft | 471 kts | 70° |
| 2026-05-01 07:24 | 7.68616 | 81.47572 | 29911 ft | 473 kts | 70° |
| 2026-05-01 07:25 | 7.69823 | 81.50665 | 30137 ft | 475 kts | 70° |
| 2026-05-01 07:25 | 7.71037 | 81.53772 | 30355 ft | 477 kts | 70° |
| 2026-05-01 07:25 | 7.72236 | 81.56845 | 30561 ft | 478 kts | 69° |
| 2026-05-01 07:25 | 7.73455 | 81.59968 | 30783 ft | 480 kts | 69° |
| 2026-05-01 07:26 | 7.74679 | 81.63104 | 30993 ft | 481 kts | 69° |
| 2026-05-01 07:26 | 7.75906 | 81.66250 | 31205 ft | 483 kts | 69° |
| 2026-05-01 07:26 | 7.77141 | 81.69418 | 31335 ft | 487 kts | 70° |
| 2026-05-01 07:26 | 7.78382 | 81.72602 | 31514 ft | 489 kts | 69° |
| 2026-05-01 07:27 | 7.79626 | 81.75793 | 31772 ft | 489 kts | 69° |
| 2026-05-01 07:27 | 7.80870 | 81.78984 | 32061 ft | 488 kts | 69° |
| 2026-05-01 07:27 | 7.82092 | 81.82121 | 32381 ft | 487 kts | 69° |
| 2026-05-01 07:27 | 7.83331 | 81.85302 | 32638 ft | 487 kts | 69° |
| 2026-05-01 07:28 | 7.84567 | 81.88477 | 32918 ft | 486 kts | 68° |
| 2026-05-01 07:28 | 7.85804 | 81.91655 | 33180 ft | 487 kts | 68° |
| 2026-05-01 07:28 | 7.87039 | 81.94828 | 33488 ft | 486 kts | 68° |
| 2026-05-01 07:28 | 7.88274 | 81.98001 | 33747 ft | 486 kts | 68° |
| 2026-05-01 07:29 | 7.89506 | 82.01169 | 34007 ft | 485 kts | 68° |
| 2026-05-01 07:29 | 7.90736 | 82.04333 | 34253 ft | 484 kts | 68° |
| 2026-05-01 07:29 | 7.91961 | 82.07485 | 34561 ft | 482 kts | 68° |
| 2026-05-01 07:29 | 7.93165 | 82.10582 | 34840 ft | 480 kts | 68° |
| 2026-05-01 07:30 | 7.94380 | 82.13708 | 35138 ft | 478 kts | 68° |
| 2026-05-01 07:30 | 7.95589 | 82.16822 | 35409 ft | 476 kts | 68° |
| 2026-05-01 07:30 | 7.96794 | 82.19925 | 35688 ft | 474 kts | 68° |
| 2026-05-01 07:30 | 7.97994 | 82.23016 | 35942 ft | 473 kts | 68° |
| 2026-05-01 07:31 | 7.99194 | 82.26105 | 36191 ft | 472 kts | 67° |
| 2026-05-01 07:31 | 8.02754 | 82.35282 | 36895 ft | 469 kts | 68° |
| 2026-05-01 07:32 | 8.05127 | 82.41399 | 37344 ft | 467 kts | 69° |
| 2026-05-01 07:32 | 8.06307 | 82.44444 | 37565 ft | 466 kts | 68° |
| 2026-05-01 07:33 | 8.08654 | 82.50503 | 38051 ft | 463 kts | 68° |
| 2026-05-01 07:33 | 8.09823 | 82.53521 | 38291 ft | 461 kts | 68° |
| 2026-05-01 07:33 | 8.12136 | 82.59495 | 38664 ft | 459 kts | 68° |
| 2026-05-01 07:34 | 8.13296 | 82.62491 | 38811 ft | 458 kts | 68° |
| 2026-05-01 07:34 | 8.15618 | 82.68495 | 38888 ft | 460 kts | 68° |
| 2026-05-01 07:35 | 8.17941 | 82.74500 | 38888 ft | 458 kts | 68° |
| 2026-05-01 07:35 | 8.20240 | 82.80451 | 38886 ft | 454 kts | 68° |
| 2026-05-01 07:36 | 8.22533 | 82.86386 | 38889 ft | 460 kts | 68° |
| 2026-05-01 07:36 | 8.24733 | 82.92507 | 38889 ft | 467 kts | 70° |
| 2026-05-01 07:37 | 8.27906 | 83.01868 | 38889 ft | 470 kts | 69° |
| 2026-05-01 07:37 | 8.30015 | 83.08062 | 38888 ft | 469 kts | 70° |
| 2026-05-01 07:38 | 8.32143 | 83.14275 | 38886 ft | 468 kts | 70° |
| 2026-05-01 07:39 | 8.35341 | 83.23600 | 38890 ft | 470 kts | 70° |
| 2026-05-01 07:39 | 8.38532 | 83.32912 | 38889 ft | 470 kts | 70° |
| 2026-05-01 07:40 | 8.40669 | 83.39152 | 38888 ft | 470 kts | 70° |
| 2026-05-01 07:40 | 8.42803 | 83.45387 | 38889 ft | 470 kts | 70° |
| 2026-05-01 07:41 | 8.44937 | 83.51626 | 38890 ft | 470 kts | 71° |
| 2026-05-01 07:42 | 8.48128 | 83.60966 | 38887 ft | 473 kts | 70° |
| 2026-05-01 07:42 | 8.50273 | 83.67247 | 38885 ft | 473 kts | 70° |
| 2026-05-01 07:43 | 8.52418 | 83.73530 | 38887 ft | 473 kts | 70° |
| 2026-05-01 07:43 | 8.55632 | 83.82954 | 38886 ft | 473 kts | 70° |
| 2026-05-01 07:44 | 8.59553 | 83.94463 | 38888 ft | 474 kts | 70° |
| 2026-05-01 07:45 | 8.61685 | 84.00725 | 38883 ft | 475 kts | 70° |
| 2026-05-01 07:45 | 8.63831 | 84.07030 | 38887 ft | 475 kts | 70° |
| 2026-05-01 07:46 | 8.66324 | 84.14364 | 38887 ft | 475 kts | 70° |
| 2026-05-01 07:47 | 8.69176 | 84.22757 | 38885 ft | 474 kts | 70° |
| 2026-05-01 07:47 | 8.71317 | 84.29063 | 38890 ft | 474 kts | 70° |
| 2026-05-01 07:48 | 8.74531 | 84.38535 | 38887 ft | 475 kts | 70° |
| 2026-05-01 07:48 | 8.76675 | 84.44859 | 38887 ft | 475 kts | 70° |
| 2026-05-01 07:49 | 8.79874 | 84.54301 | 38882 ft | 476 kts | 70° |
| 2026-05-01 07:50 | 8.82015 | 84.60626 | 38888 ft | 476 kts | 70° |
| 2026-05-01 07:50 | 8.85225 | 84.70117 | 38886 ft | 475 kts | 70° |
| 2026-05-01 07:51 | 8.87347 | 84.76397 | 38887 ft | 475 kts | 70° |
| 2026-05-01 07:52 | 8.90573 | 84.85872 | 38886 ft | 475 kts | 70° |
| 2026-05-01 07:52 | 8.92741 | 84.92180 | 38886 ft | 475 kts | 70° |
| 2026-05-01 07:53 | 8.95990 | 85.01646 | 38884 ft | 475 kts | 70° |
| 2026-05-01 07:53 | 8.98137 | 85.07915 | 38885 ft | 475 kts | 69° |
| 2026-05-01 07:55 | 9.03548 | 85.23731 | 38886 ft | 476 kts | 69° |
| 2026-05-01 07:56 | 9.08923 | 85.39472 | 38887 ft | 472 kts | 69° |
| 2026-05-01 07:57 | 9.12132 | 85.48875 | 38882 ft | 472 kts | 69° |
| 2026-05-01 07:58 | 9.16401 | 85.61399 | 38880 ft | 472 kts | 69° |
| 2026-05-01 07:59 | 9.20680 | 85.73970 | 38880 ft | 472 kts | 69° |
| 2026-05-01 08:00 | 9.27117 | 85.92769 | 38882 ft | 472 kts | 69° |
| 2026-05-01 08:01 | 9.31531 | 86.05287 | 38878 ft | 472 kts | 69° |
| 2026-05-01 08:02 | 9.34815 | 86.14636 | 38878 ft | 472 kts | 69° |
| 2026-05-01 08:03 | 9.38113 | 86.24045 | 38878 ft | 474 kts | 69° |
| 2026-05-01 08:03 | 9.41423 | 86.33495 | 38878 ft | 475 kts | 69° |
| 2026-05-01 08:04 | 9.45819 | 86.46063 | 38878 ft | 474 kts | 69° |
| 2026-05-01 08:05 | 9.49116 | 86.55497 | 38876 ft | 474 kts | 69° |
| 2026-05-01 08:06 | 9.52415 | 86.64944 | 38879 ft | 475 kts | 69° |
| 2026-05-01 08:07 | 9.56804 | 86.77529 | 38873 ft | 475 kts | 69° |
| 2026-05-01 08:08 | 9.60102 | 86.86997 | 38873 ft | 475 kts | 69° |
| 2026-05-01 08:09 | 9.64482 | 86.99584 | 38873 ft | 476 kts | 69° |
| 2026-05-01 08:09 | 9.66687 | 87.05928 | 38879 ft | 477 kts | 69° |
| 2026-05-01 08:10 | 9.71096 | 87.18623 | 38875 ft | 477 kts | 69° |
| 2026-05-01 08:11 | 9.75484 | 87.31275 | 38879 ft | 477 kts | 69° |
| 2026-05-01 08:12 | 9.78889 | 87.40789 | 38870 ft | 480 kts | 68° |
| 2026-05-01 08:13 | 9.82462 | 87.50293 | 38876 ft | 481 kts | 68° |
| 2026-05-01 08:13 | 9.85989 | 87.59727 | 38869 ft | 477 kts | 68° |
| 2026-05-01 08:14 | 9.88331 | 87.66017 | 38876 ft | 477 kts | 68° |
| 2026-05-01 08:14 | 9.90671 | 87.72307 | 38870 ft | 477 kts | 68° |
| 2026-05-01 08:15 | 9.94181 | 87.81751 | 38870 ft | 480 kts | 68° |
| 2026-05-01 08:16 | 9.96535 | 87.88090 | 38877 ft | 480 kts | 68° |
| 2026-05-01 08:16 | 9.98888 | 87.94432 | 38871 ft | 480 kts | 68° |
| 2026-05-01 08:17 | 10.01240 | 88.00773 | 38874 ft | 480 kts | 68° |
| 2026-05-01 08:17 | 10.03591 | 88.07115 | 38874 ft | 480 kts | 68° |
| 2026-05-01 08:18 | 10.05926 | 88.13418 | 38875 ft | 481 kts | 68° |
| 2026-05-01 08:19 | 10.10643 | 88.26165 | 38872 ft | 483 kts | 68° |
| 2026-05-01 08:19 | 10.13000 | 88.32542 | 38864 ft | 483 kts | 68° |
| 2026-05-01 08:20 | 10.15340 | 88.38877 | 38869 ft | 483 kts | 68° |
| 2026-05-01 08:20 | 10.17694 | 88.45253 | 38860 ft | 483 kts | 69° |
| 2026-05-01 08:21 | 10.20048 | 88.51634 | 38875 ft | 483 kts | 69° |
| 2026-05-01 08:21 | 10.22404 | 88.58019 | 38867 ft | 483 kts | 68° |
| 2026-05-01 08:22 | 10.24741 | 88.64356 | 38874 ft | 482 kts | 69° |
| 2026-05-01 08:22 | 10.27093 | 88.70738 | 38873 ft | 482 kts | 69° |
| 2026-05-01 08:23 | 10.29441 | 88.77116 | 38861 ft | 482 kts | 69° |
| 2026-05-01 08:23 | 10.31790 | 88.83498 | 38873 ft | 482 kts | 69° |
| 2026-05-01 08:24 | 10.34121 | 88.89837 | 38874 ft | 483 kts | 69° |
| 2026-05-01 08:24 | 10.36476 | 88.96245 | 38865 ft | 484 kts | 69° |
| 2026-05-01 08:25 | 10.38829 | 89.02651 | 38875 ft | 484 kts | 69° |
| 2026-05-01 08:25 | 10.41163 | 89.09011 | 38873 ft | 484 kts | 69° |
| 2026-05-01 08:26 | 10.43513 | 89.15420 | 38877 ft | 484 kts | 69° |
| 2026-05-01 08:26 | 10.45862 | 89.21829 | 38865 ft | 484 kts | 69° |
| 2026-05-01 08:27 | 10.48210 | 89.28240 | 38868 ft | 485 kts | 69° |
| 2026-05-01 08:27 | 10.50545 | 89.34619 | 38864 ft | 485 kts | 69° |
| 2026-05-01 08:28 | 10.52895 | 89.41045 | 38865 ft | 485 kts | 69° |
| 2026-05-01 08:28 | 10.55245 | 89.47475 | 38870 ft | 485 kts | 69° |
| 2026-05-01 08:29 | 10.57591 | 89.53899 | 38877 ft | 485 kts | 69° |
| 2026-05-01 08:29 | 10.59934 | 89.60321 | 38868 ft | 485 kts | 69° |
| 2026-05-01 08:30 | 10.62261 | 89.66701 | 38867 ft | 484 kts | 69° |
| 2026-05-01 08:30 | 10.64601 | 89.73121 | 38860 ft | 484 kts | 69° |
| 2026-05-01 08:31 | 10.66941 | 89.79547 | 38859 ft | 484 kts | 69° |
| 2026-05-01 08:31 | 10.69278 | 89.85969 | 38875 ft | 484 kts | 69° |
| 2026-05-01 08:32 | 10.71599 | 89.92352 | 38858 ft | 484 kts | 69° |
| 2026-05-01 08:32 | 10.73925 | 89.98752 | 38869 ft | 484 kts | 69° |
| 2026-05-01 08:33 | 10.76196 | 90.05211 | 38874 ft | 486 kts | 70° |
| 2026-05-01 08:33 | 10.78417 | 90.11704 | 38859 ft | 486 kts | 71° |
| 2026-05-01 08:34 | 10.80622 | 90.18162 | 38873 ft | 486 kts | 70° |
| 2026-05-01 08:34 | 10.82848 | 90.24659 | 38870 ft | 486 kts | 70° |
| 2026-05-01 08:35 | 10.85076 | 90.31155 | 38857 ft | 486 kts | 70° |
| 2026-05-01 08:35 | 10.87305 | 90.37653 | 38863 ft | 486 kts | 70° |
| 2026-05-01 08:36 | 10.89533 | 90.44152 | 38853 ft | 487 kts | 71° |
| 2026-05-01 08:36 | 10.91744 | 90.50612 | 38870 ft | 487 kts | 71° |
| 2026-05-01 08:37 | 10.93968 | 90.57117 | 38854 ft | 487 kts | 71° |
| 2026-05-01 08:37 | 10.96193 | 90.63627 | 38862 ft | 487 kts | 71° |
| 2026-05-01 08:38 | 10.98420 | 90.70148 | 38860 ft | 488 kts | 71° |
| 2026-05-01 08:38 | 11.00645 | 90.76667 | 38862 ft | 488 kts | 71° |
| 2026-05-01 08:39 | 11.02855 | 90.83149 | 38862 ft | 488 kts | 71° |
| 2026-05-01 08:39 | 11.05083 | 90.89685 | 38861 ft | 489 kts | 71° |
| 2026-05-01 08:40 | 11.08420 | 90.99489 | 38860 ft | 489 kts | 71° |
| 2026-05-01 08:40 | 11.10643 | 91.06026 | 38859 ft | 489 kts | 71° |
| 2026-05-01 08:41 | 11.12850 | 91.12522 | 38859 ft | 489 kts | 71° |
| 2026-05-01 08:41 | 11.15083 | 91.19100 | 38856 ft | 495 kts | 71° |
| 2026-05-01 08:42 | 11.17345 | 91.25766 | 38857 ft | 502 kts | 71° |
| 2026-05-01 08:42 | 11.19637 | 91.32528 | 38857 ft | 508 kts | 71° |
| 2026-05-01 08:43 | 11.21938 | 91.39320 | 38859 ft | 512 kts | 71° |
| 2026-05-01 08:43 | 11.24257 | 91.46171 | 38857 ft | 511 kts | 71° |
| 2026-05-01 08:44 | 11.26572 | 91.53017 | 38854 ft | 511 kts | 71° |
| 2026-05-01 08:44 | 11.28881 | 91.59851 | 38870 ft | 509 kts | 71° |
| 2026-05-01 08:45 | 11.31166 | 91.66621 | 38855 ft | 509 kts | 71° |
| 2026-05-01 08:45 | 11.33471 | 91.73453 | 38856 ft | 511 kts | 71° |
| 2026-05-01 08:46 | 11.35778 | 91.80325 | 38855 ft | 513 kts | 72° |
| 2026-05-01 08:46 | 11.37963 | 91.87239 | 38860 ft | 513 kts | 73° |
| 2026-05-01 08:47 | 11.40093 | 91.94174 | 38859 ft | 512 kts | 73° |
| 2026-05-01 08:47 | 11.42204 | 92.01037 | 38860 ft | 510 kts | 73° |
| 2026-05-01 08:48 | 11.44336 | 92.07936 | 38860 ft | 510 kts | 73° |
| 2026-05-01 08:48 | 11.46470 | 92.14827 | 38858 ft | 510 kts | 73° |
| 2026-05-01 08:49 | 11.48603 | 92.21723 | 38860 ft | 510 kts | 73° |
| 2026-05-01 08:49 | 11.50722 | 92.28577 | 38858 ft | 510 kts | 73° |
| 2026-05-01 08:50 | 11.52852 | 92.35476 | 38856 ft | 509 kts | 73° |
| 2026-05-01 08:50 | 11.54974 | 92.42356 | 38872 ft | 509 kts | 73° |
| 2026-05-01 08:51 | 11.57094 | 92.49237 | 38852 ft | 509 kts | 73° |
| 2026-05-01 08:51 | 11.59215 | 92.56125 | 38851 ft | 509 kts | 73° |
| 2026-05-01 08:52 | 11.61318 | 92.62964 | 38851 ft | 509 kts | 73° |
| 2026-05-01 08:52 | 11.63437 | 92.69858 | 38857 ft | 508 kts | 73° |
| 2026-05-01 08:53 | 11.65844 | 92.76629 | 38852 ft | 508 kts | 68° |
| 2026-05-01 08:53 | 11.68714 | 92.83220 | 38860 ft | 508 kts | 66° |
| 2026-05-01 08:54 | 11.71648 | 92.89731 | 38877 ft | 509 kts | 66° |
| 2026-05-01 08:54 | 11.74610 | 92.96288 | 38855 ft | 509 kts | 66° |
| 2026-05-01 08:55 | 11.77550 | 93.02826 | 38856 ft | 500 kts | 66° |
| 2026-05-01 08:55 | 11.80396 | 93.09173 | 38859 ft | 486 kts | 66° |
| 2026-05-01 08:56 | 11.83184 | 93.15401 | 38850 ft | 486 kts | 66° |
| 2026-05-01 08:56 | 11.85991 | 93.21679 | 38865 ft | 486 kts | 66° |
| 2026-05-01 08:57 | 11.88799 | 93.27962 | 38850 ft | 486 kts | 66° |
| 2026-05-01 08:57 | 11.91607 | 93.34246 | 38863 ft | 486 kts | 66° |
| 2026-05-01 08:58 | 11.94395 | 93.40489 | 38852 ft | 486 kts | 66° |
| 2026-05-01 08:58 | 11.97200 | 93.46775 | 38853 ft | 486 kts | 66° |
| 2026-05-01 08:59 | 12.00002 | 93.53060 | 38850 ft | 486 kts | 66° |
| 2026-05-01 08:59 | 12.02805 | 93.59351 | 38856 ft | 487 kts | 66° |
| 2026-05-01 09:00 | 12.05612 | 93.65654 | 38852 ft | 488 kts | 66° |
| 2026-05-01 09:00 | 12.08404 | 93.71930 | 38853 ft | 489 kts | 66° |
| 2026-05-01 09:01 | 12.11216 | 93.78254 | 38851 ft | 488 kts | 66° |
| 2026-05-01 09:01 | 12.14022 | 93.84572 | 38850 ft | 488 kts | 66° |
| 2026-05-01 09:02 | 12.16828 | 93.90893 | 38851 ft | 489 kts | 66° |
| 2026-05-01 09:02 | 12.19616 | 93.97176 | 38849 ft | 489 kts | 66° |
| 2026-05-01 09:03 | 12.22423 | 94.03503 | 38849 ft | 489 kts | 66° |
| 2026-05-01 09:03 | 12.25256 | 94.09815 | 38850 ft | 489 kts | 66° |
| 2026-05-01 09:04 | 12.28103 | 94.16126 | 38849 ft | 489 kts | 66° |
| 2026-05-01 09:04 | 12.30945 | 94.22435 | 38849 ft | 489 kts | 66° |
| 2026-05-01 09:05 | 12.33766 | 94.28708 | 38852 ft | 489 kts | 66° |
| 2026-05-01 09:05 | 12.36602 | 94.35022 | 38853 ft | 488 kts | 66° |
| 2026-05-01 09:06 | 12.39439 | 94.41342 | 38855 ft | 490 kts | 66° |
| 2026-05-01 09:06 | 12.42301 | 94.47681 | 38854 ft | 491 kts | 66° |
| 2026-05-01 09:07 | 12.45156 | 94.53977 | 38852 ft | 491 kts | 66° |
| 2026-05-01 09:07 | 12.48028 | 94.60317 | 38852 ft | 491 kts | 65° |
| 2026-05-01 09:08 | 12.50894 | 94.66654 | 38850 ft | 490 kts | 65° |
| 2026-05-01 09:08 | 12.53756 | 94.72989 | 38850 ft | 490 kts | 66° |
| 2026-05-01 09:09 | 12.56597 | 94.79282 | 38852 ft | 490 kts | 66° |
| 2026-05-01 09:09 | 12.59458 | 94.85623 | 38849 ft | 490 kts | 66° |
| 2026-05-01 09:10 | 12.62315 | 94.91962 | 38857 ft | 490 kts | 66° |
| 2026-05-01 09:10 | 12.65173 | 94.98307 | 38849 ft | 491 kts | 65° |
| 2026-05-01 09:11 | 12.68009 | 95.04608 | 38860 ft | 491 kts | 65° |
| 2026-05-01 09:11 | 12.70863 | 95.10952 | 38849 ft | 491 kts | 65° |
| 2026-05-01 09:12 | 12.73717 | 95.17303 | 38853 ft | 491 kts | 66° |
| 2026-05-01 09:12 | 12.76575 | 95.23666 | 38850 ft | 492 kts | 66° |
| 2026-05-01 09:13 | 12.79415 | 95.29995 | 38851 ft | 492 kts | 66° |
| 2026-05-01 09:13 | 12.82273 | 95.36369 | 38852 ft | 492 kts | 66° |
| 2026-05-01 09:14 | 12.85130 | 95.42746 | 38865 ft | 493 kts | 66° |
| 2026-05-01 09:14 | 12.87996 | 95.49131 | 38852 ft | 493 kts | 65° |
| 2026-05-01 09:15 | 12.90879 | 95.55455 | 38850 ft | 493 kts | 65° |
| 2026-05-01 09:15 | 12.93791 | 95.61816 | 38854 ft | 493 kts | 65° |
| 2026-05-01 09:16 | 12.96701 | 95.68184 | 38850 ft | 493 kts | 65° |
| 2026-05-01 09:17 | 13.01053 | 95.77729 | 38861 ft | 492 kts | 65° |
| 2026-05-01 09:17 | 13.05377 | 95.87230 | 38856 ft | 492 kts | 65° |
| 2026-05-01 09:18 | 13.09719 | 95.96780 | 38852 ft | 494 kts | 65° |
| 2026-05-01 09:19 | 13.14074 | 96.06369 | 38848 ft | 494 kts | 65° |
| 2026-05-01 09:20 | 13.18405 | 96.15914 | 38847 ft | 494 kts | 65° |
| 2026-05-01 09:21 | 13.24202 | 96.28709 | 38850 ft | 494 kts | 65° |
| 2026-05-01 09:21 | 13.28522 | 96.38260 | 38849 ft | 494 kts | 65° |
| 2026-05-01 09:22 | 13.34306 | 96.51063 | 38849 ft | 495 kts | 65° |
| 2026-05-01 09:23 | 13.38647 | 96.60685 | 38848 ft | 495 kts | 65° |
| 2026-05-01 09:24 | 13.42968 | 96.70274 | 38847 ft | 496 kts | 65° |
| 2026-05-01 09:25 | 13.48761 | 96.83147 | 38847 ft | 497 kts | 65° |
| 2026-05-01 09:26 | 13.53080 | 96.92760 | 38844 ft | 496 kts | 65° |
| 2026-05-01 09:26 | 13.57411 | 97.02409 | 38855 ft | 495 kts | 65° |
| 2026-05-01 09:27 | 13.61735 | 97.12055 | 38841 ft | 495 kts | 65° |
| 2026-05-01 09:28 | 13.64597 | 97.18447 | 38843 ft | 495 kts | 65° |
| 2026-05-01 09:28 | 13.67478 | 97.24887 | 38842 ft | 495 kts | 65° |
| 2026-05-01 09:29 | 13.71794 | 97.34542 | 38839 ft | 496 kts | 65° |
| 2026-05-01 09:30 | 13.76089 | 97.44165 | 38846 ft | 496 kts | 65° |
| 2026-05-01 09:30 | 13.80414 | 97.53864 | 38845 ft | 498 kts | 65° |
| 2026-05-01 09:31 | 13.83300 | 97.60344 | 38838 ft | 497 kts | 65° |
| 2026-05-01 09:32 | 13.87590 | 97.69986 | 38841 ft | 492 kts | 65° |
| 2026-05-01 09:32 | 13.91845 | 97.79561 | 38842 ft | 493 kts | 65° |
| 2026-05-01 09:33 | 13.94693 | 97.85978 | 38842 ft | 493 kts | 65° |
| 2026-05-01 09:34 | 13.98963 | 97.95605 | 38839 ft | 493 kts | 65° |
| 2026-05-01 09:34 | 14.03204 | 98.05182 | 38845 ft | 492 kts | 65° |
| 2026-05-01 09:35 | 14.07457 | 98.14797 | 38851 ft | 492 kts | 65° |
| 2026-05-01 09:36 | 14.09502 | 98.21488 | 38851 ft | 491 kts | 83° |
| 2026-05-01 09:36 | 14.09639 | 98.28495 | 38852 ft | 490 kts | 94° |
| 2026-05-01 09:37 | 14.09839 | 98.35466 | 38866 ft | 492 kts | 84° |
| 2026-05-01 09:37 | 14.11323 | 98.45921 | 38859 ft | 492 kts | 81° |
| 2026-05-01 09:38 | 14.12979 | 98.56355 | 38871 ft | 492 kts | 81° |
| 2026-05-01 09:39 | 14.14591 | 98.66753 | 38865 ft | 492 kts | 81° |
| 2026-05-01 09:39 | 14.15657 | 98.73722 | 38873 ft | 492 kts | 81° |
| 2026-05-01 09:40 | 14.17251 | 98.84181 | 38865 ft | 493 kts | 81° |
| 2026-05-01 09:41 | 14.18313 | 98.91153 | 38860 ft | 493 kts | 81° |
| 2026-05-01 09:41 | 14.19896 | 99.01567 | 38852 ft | 493 kts | 81° |
| 2026-05-01 09:42 | 14.20954 | 99.08541 | 38862 ft | 493 kts | 81° |
| 2026-05-01 09:43 | 14.23066 | 99.22521 | 38842 ft | 494 kts | 81° |
| 2026-05-01 09:43 | 14.24114 | 99.29475 | 38825 ft | 494 kts | 81° |
| 2026-05-01 09:44 | 14.25691 | 99.39972 | 38828 ft | 494 kts | 81° |
| 2026-05-01 09:45 | 14.26741 | 99.46974 | 38825 ft | 494 kts | 81° |
| 2026-05-01 09:45 | 14.28310 | 99.57472 | 38820 ft | 494 kts | 81° |
| 2026-05-01 09:46 | 14.29347 | 99.64425 | 38819 ft | 494 kts | 81° |
| 2026-05-01 09:46 | 14.30390 | 99.71428 | 38804 ft | 494 kts | 81° |
| 2026-05-01 09:47 | 14.31430 | 99.78432 | 38801 ft | 494 kts | 81° |
| 2026-05-01 09:47 | 14.32467 | 99.85428 | 38810 ft | 494 kts | 81° |
| 2026-05-01 09:48 | 14.33495 | 99.92378 | 38815 ft | 493 kts | 81° |
| 2026-05-01 09:48 | 14.34526 | 99.99363 | 38806 ft | 493 kts | 81° |
| 2026-05-01 09:49 | 14.35554 | 100.06345 | 38808 ft | 493 kts | 81° |
| 2026-05-01 09:49 | 14.36583 | 100.13336 | 38813 ft | 494 kts | 82° |
| 2026-05-01 09:50 | 14.37605 | 100.20305 | 38814 ft | 495 kts | 82° |
| 2026-05-01 09:50 | 14.38632 | 100.27327 | 38813 ft | 496 kts | 81° |
| 2026-05-01 09:51 | 14.39660 | 100.34361 | 38817 ft | 496 kts | 81° |
| 2026-05-01 09:51 | 14.40685 | 100.41396 | 38813 ft | 496 kts | 81° |
| 2026-05-01 09:52 | 14.41702 | 100.48385 | 38823 ft | 496 kts | 81° |
| 2026-05-01 09:52 | 14.42722 | 100.55413 | 38831 ft | 496 kts | 81° |
| 2026-05-01 09:53 | 14.43741 | 100.62447 | 38817 ft | 495 kts | 81° |
| 2026-05-01 09:53 | 14.44755 | 100.69464 | 38821 ft | 494 kts | 81° |
| 2026-05-01 09:54 | 14.45760 | 100.76431 | 38829 ft | 494 kts | 81° |
| 2026-05-01 09:54 | 14.46768 | 100.83437 | 38825 ft | 494 kts | 81° |
| 2026-05-01 09:55 | 14.47776 | 100.90453 | 38838 ft | 494 kts | 81° |
| 2026-05-01 09:55 | 14.48780 | 100.97462 | 38839 ft | 494 kts | 81° |
| 2026-05-01 09:56 | 14.49784 | 101.04482 | 38853 ft | 494 kts | 81° |
| 2026-05-01 09:56 | 14.50777 | 101.11444 | 38858 ft | 494 kts | 81° |
| 2026-05-01 09:57 | 14.51880 | 101.18434 | 38857 ft | 493 kts | 75° |
| 2026-05-01 09:57 | 14.54189 | 101.25074 | 38851 ft | 492 kts | 66° |
| 2026-05-01 09:58 | 14.56893 | 101.31559 | 38863 ft | 492 kts | 65° |
| 2026-05-01 09:58 | 14.59647 | 101.37958 | 38865 ft | 490 kts | 65° |
| 2026-05-01 09:59 | 14.62398 | 101.44382 | 38869 ft | 489 kts | 65° |
| 2026-05-01 09:59 | 14.65130 | 101.50817 | 38876 ft | 489 kts | 65° |
| 2026-05-01 10:00 | 14.67864 | 101.57282 | 38876 ft | 494 kts | 65° |
| 2026-05-01 10:00 | 14.70616 | 101.63800 | 38884 ft | 495 kts | 65° |
| 2026-05-01 10:01 | 14.73348 | 101.70276 | 38883 ft | 495 kts | 65° |
| 2026-05-01 10:01 | 14.76091 | 101.76783 | 38885 ft | 493 kts | 65° |
| 2026-05-01 10:02 | 14.78828 | 101.83277 | 38884 ft | 493 kts | 65° |
| 2026-05-01 10:02 | 14.81561 | 101.89768 | 38887 ft | 493 kts | 65° |
| 2026-05-01 10:03 | 14.84292 | 101.96263 | 38884 ft | 493 kts | 65° |
| 2026-05-01 10:03 | 14.87005 | 102.02718 | 38889 ft | 493 kts | 65° |
| 2026-05-01 10:04 | 14.89734 | 102.09218 | 38878 ft | 493 kts | 66° |
| 2026-05-01 10:04 | 14.92961 | 102.15449 | 38875 ft | 491 kts | 53° |
| 2026-05-01 10:05 | 14.96989 | 102.21153 | 38859 ft | 491 kts | 51° |
| 2026-05-01 10:05 | 15.01132 | 102.26710 | 38852 ft | 491 kts | 50° |
| 2026-05-01 10:06 | 15.05316 | 102.32290 | 38859 ft | 491 kts | 51° |
| 2026-05-01 10:06 | 15.09488 | 102.37891 | 38861 ft | 491 kts | 51° |
| 2026-05-01 10:07 | 15.13648 | 102.43501 | 38869 ft | 491 kts | 50° |
| 2026-05-01 10:07 | 15.17779 | 102.49085 | 38860 ft | 492 kts | 50° |
| 2026-05-01 10:08 | 15.24015 | 102.57529 | 38865 ft | 492 kts | 50° |
| 2026-05-01 10:09 | 15.28174 | 102.63165 | 38863 ft | 492 kts | 50° |
| 2026-05-01 10:09 | 15.32342 | 102.68816 | 38862 ft | 495 kts | 50° |
| 2026-05-01 10:10 | 15.36494 | 102.74450 | 38861 ft | 496 kts | 50° |
| 2026-05-01 10:10 | 15.42763 | 102.82967 | 38862 ft | 494 kts | 50° |
| 2026-05-01 10:11 | 15.46927 | 102.88628 | 38865 ft | 494 kts | 50° |
| 2026-05-01 10:11 | 15.51087 | 102.94287 | 38859 ft | 494 kts | 50° |
| 2026-05-01 10:12 | 15.54548 | 102.98998 | 38860 ft | 494 kts | 50° |
| 2026-05-01 10:13 | 15.61456 | 103.08413 | 38853 ft | 494 kts | 50° |
| 2026-05-01 10:13 | 15.65617 | 103.14088 | 38855 ft | 494 kts | 50° |
| 2026-05-01 10:14 | 15.71822 | 103.22561 | 38852 ft | 493 kts | 50° |
| 2026-05-01 10:14 | 15.75971 | 103.28231 | 38861 ft | 493 kts | 50° |
| 2026-05-01 10:15 | 15.80120 | 103.33906 | 38854 ft | 493 kts | 50° |
| 2026-05-01 10:15 | 15.84268 | 103.39583 | 38861 ft | 493 kts | 50° |
| 2026-05-01 10:16 | 15.88390 | 103.45227 | 38861 ft | 493 kts | 50° |
| 2026-05-01 10:17 | 15.94607 | 103.53749 | 38850 ft | 494 kts | 50° |
| 2026-05-01 10:17 | 16.00838 | 103.62300 | 38849 ft | 495 kts | 50° |
| 2026-05-01 10:18 | 16.07041 | 103.70825 | 38826 ft | 495 kts | 50° |
| 2026-05-01 10:19 | 16.11108 | 103.76598 | 38840 ft | 496 kts | 57° |
| 2026-05-01 10:19 | 16.14314 | 103.82974 | 38822 ft | 498 kts | 63° |
| 2026-05-01 10:20 | 16.18706 | 103.92710 | 38857 ft | 498 kts | 64° |
| 2026-05-01 10:20 | 16.21613 | 103.99241 | 38884 ft | 497 kts | 64° |
| 2026-05-01 10:21 | 16.25997 | 104.09032 | 38884 ft | 498 kts | 63° |
| 2026-05-01 10:22 | 16.30377 | 104.18792 | 38890 ft | 498 kts | 63° |
| 2026-05-01 10:23 | 16.34765 | 104.28586 | 38908 ft | 496 kts | 63° |
| 2026-05-01 10:23 | 16.39130 | 104.38344 | 38902 ft | 495 kts | 63° |
| 2026-05-01 10:24 | 16.44926 | 104.51324 | 38917 ft | 496 kts | 63° |
| 2026-05-01 10:25 | 16.50732 | 104.64353 | 38922 ft | 496 kts | 63° |
| 2026-05-01 10:26 | 16.53633 | 104.70874 | 38913 ft | 496 kts | 63° |
| 2026-05-01 10:27 | 16.60312 | 104.83374 | 38911 ft | 495 kts | 55° |
| 2026-05-01 10:28 | 16.65908 | 104.92429 | 38916 ft | 495 kts | 55° |
| 2026-05-01 10:28 | 16.71512 | 105.01492 | 38921 ft | 496 kts | 55° |
| 2026-05-01 10:29 | 16.76480 | 105.09566 | 38915 ft | 497 kts | 55° |
| 2026-05-01 10:30 | 16.83910 | 105.21669 | 38913 ft | 497 kts | 55° |
| 2026-05-01 10:31 | 16.91385 | 105.33877 | 38905 ft | 499 kts | 55° |
| 2026-05-01 10:32 | 16.96965 | 105.43010 | 38907 ft | 499 kts | 55° |
| 2026-05-01 10:33 | 17.05040 | 105.56248 | 38896 ft | 500 kts | 55° |
| 2026-05-01 10:34 | 17.10005 | 105.64400 | 38903 ft | 500 kts | 55° |
| 2026-05-01 10:34 | 17.13733 | 105.70527 | 38907 ft | 499 kts | 55° |
| 2026-05-01 10:35 | 17.19316 | 105.79713 | 38913 ft | 499 kts | 55° |
| 2026-05-01 10:35 | 17.23038 | 105.85844 | 38913 ft | 499 kts | 55° |
| 2026-05-01 10:36 | 17.28592 | 105.95002 | 38925 ft | 499 kts | 55° |
| 2026-05-01 10:37 | 17.32306 | 106.01136 | 38926 ft | 499 kts | 55° |
| 2026-05-01 10:37 | 17.37874 | 106.10319 | 38936 ft | 497 kts | 55° |
| 2026-05-01 10:38 | 17.41596 | 106.16361 | 38931 ft | 497 kts | 54° |
| 2026-05-01 10:38 | 17.45356 | 106.22448 | 38938 ft | 498 kts | 54° |
| 2026-05-01 10:39 | 17.49120 | 106.28551 | 38922 ft | 499 kts | 55° |
| 2026-05-01 10:39 | 17.52882 | 106.34666 | 38929 ft | 499 kts | 54° |
| 2026-05-01 10:40 | 17.56612 | 106.40739 | 38924 ft | 498 kts | 54° |
| 2026-05-01 10:40 | 17.60361 | 106.46847 | 38917 ft | 498 kts | 54° |
| 2026-05-01 10:41 | 17.64107 | 106.52955 | 38914 ft | 498 kts | 54° |
| 2026-05-01 10:42 | 17.69723 | 106.62127 | 38912 ft | 498 kts | 54° |
| 2026-05-01 10:42 | 17.73434 | 106.68213 | 38906 ft | 498 kts | 55° |
| 2026-05-01 10:43 | 17.77147 | 106.74313 | 38905 ft | 496 kts | 55° |
| 2026-05-01 10:43 | 17.80858 | 106.80414 | 38903 ft | 494 kts | 55° |
| 2026-05-01 10:44 | 17.84556 | 106.86497 | 38903 ft | 494 kts | 55° |
| 2026-05-01 10:44 | 17.88230 | 106.92544 | 38897 ft | 495 kts | 55° |
| 2026-05-01 10:45 | 17.91942 | 106.98630 | 38898 ft | 495 kts | 54° |
| 2026-05-01 10:45 | 17.95658 | 107.04710 | 38900 ft | 495 kts | 54° |
| 2026-05-01 10:46 | 17.99369 | 107.10789 | 38897 ft | 494 kts | 54° |
| 2026-05-01 10:46 | 18.03076 | 107.16869 | 38898 ft | 494 kts | 54° |
| 2026-05-01 10:47 | 18.06753 | 107.22908 | 38900 ft | 494 kts | 54° |
| 2026-05-01 10:47 | 18.10451 | 107.28993 | 38900 ft | 494 kts | 55° |
| 2026-05-01 10:48 | 18.14148 | 107.35085 | 38900 ft | 494 kts | 55° |
| 2026-05-01 10:48 | 18.17815 | 107.41136 | 38900 ft | 494 kts | 54° |
| 2026-05-01 10:49 | 18.21508 | 107.47232 | 38897 ft | 494 kts | 54° |
| 2026-05-01 10:49 | 18.25199 | 107.53331 | 38897 ft | 494 kts | 54° |
| 2026-05-01 10:50 | 18.28888 | 107.59434 | 38909 ft | 494 kts | 55° |
| 2026-05-01 10:50 | 18.32581 | 107.65547 | 38900 ft | 495 kts | 55° |
| 2026-05-01 10:51 | 18.36649 | 107.71302 | 38900 ft | 493 kts | 48° |
| 2026-05-01 10:51 | 18.40986 | 107.76880 | 38900 ft | 492 kts | 47° |
| 2026-05-01 10:52 | 18.45366 | 107.82419 | 38898 ft | 492 kts | 47° |
| 2026-05-01 10:52 | 18.49746 | 107.87962 | 38900 ft | 492 kts | 47° |
| 2026-05-01 10:53 | 18.54090 | 107.93480 | 38905 ft | 492 kts | 47° |
| 2026-05-01 10:53 | 18.58458 | 107.99043 | 38910 ft | 492 kts | 47° |
| 2026-05-01 10:54 | 18.62812 | 108.04596 | 38905 ft | 490 kts | 47° |
| 2026-05-01 10:54 | 18.67154 | 108.10136 | 38909 ft | 490 kts | 47° |
| 2026-05-01 10:55 | 18.71466 | 108.15640 | 38909 ft | 490 kts | 47° |
| 2026-05-01 10:55 | 18.75806 | 108.21187 | 38908 ft | 490 kts | 47° |
| 2026-05-01 10:56 | 18.80143 | 108.26734 | 38903 ft | 490 kts | 47° |
| 2026-05-01 10:56 | 18.84479 | 108.32285 | 38906 ft | 490 kts | 47° |
| 2026-05-01 10:57 | 18.88811 | 108.37838 | 38910 ft | 489 kts | 47° |
| 2026-05-01 10:57 | 18.93097 | 108.43335 | 38906 ft | 487 kts | 47° |
| 2026-05-01 10:57 | 18.95225 | 108.46066 | 38908 ft | 476 kts | 47° |
| 2026-05-01 10:58 | 18.97335 | 108.48775 | 38909 ft | 479 kts | 47° |
| 2026-05-01 10:58 | 19.01593 | 108.54241 | 38907 ft | 483 kts | 47° |
| 2026-05-01 10:59 | 19.05862 | 108.59733 | 38914 ft | 483 kts | 47° |
| 2026-05-01 10:59 | 19.10099 | 108.65188 | 38912 ft | 483 kts | 47° |
| 2026-05-01 11:00 | 19.14356 | 108.70674 | 38912 ft | 481 kts | 47° |
| 2026-05-01 11:00 | 19.18589 | 108.76133 | 38919 ft | 480 kts | 47° |
| 2026-05-01 11:01 | 19.22822 | 108.81594 | 38919 ft | 480 kts | 47° |
| 2026-05-01 11:01 | 19.27047 | 108.87051 | 38922 ft | 479 kts | 47° |
| 2026-05-01 11:02 | 19.31238 | 108.92469 | 38923 ft | 477 kts | 47° |
| 2026-05-01 11:02 | 19.35421 | 108.97883 | 38919 ft | 476 kts | 47° |
| 2026-05-01 11:03 | 19.39629 | 109.03329 | 38923 ft | 479 kts | 47° |
| 2026-05-01 11:03 | 19.43845 | 109.08792 | 38932 ft | 479 kts | 47° |
| 2026-05-01 11:04 | 19.48068 | 109.14269 | 38925 ft | 480 kts | 48° |
| 2026-05-01 11:04 | 19.52249 | 109.19702 | 38930 ft | 478 kts | 48° |
| 2026-05-01 11:05 | 19.56427 | 109.25178 | 38918 ft | 477 kts | 49° |
| 2026-05-01 11:05 | 19.60594 | 109.30664 | 38924 ft | 478 kts | 49° |
| 2026-05-01 11:06 | 19.64759 | 109.36150 | 38928 ft | 478 kts | 49° |
| 2026-05-01 11:06 | 19.68899 | 109.41604 | 38926 ft | 478 kts | 49° |
| 2026-05-01 11:07 | 19.75143 | 109.49839 | 38925 ft | 477 kts | 49° |
| 2026-05-01 11:07 | 19.79293 | 109.55317 | 38925 ft | 476 kts | 49° |
| 2026-05-01 11:08 | 19.83438 | 109.60792 | 38920 ft | 476 kts | 49° |
| 2026-05-01 11:09 | 19.89628 | 109.68981 | 38924 ft | 476 kts | 49° |
| 2026-05-01 11:09 | 19.93769 | 109.74466 | 38926 ft | 476 kts | 49° |
| 2026-05-01 11:10 | 19.99924 | 109.82632 | 38936 ft | 461 kts | 49° |
| 2026-05-01 11:10 | 20.03878 | 109.87883 | 38929 ft | 458 kts | 49° |
| 2026-05-01 11:11 | 20.07866 | 109.93178 | 38927 ft | 459 kts | 49° |
| 2026-05-01 11:11 | 20.11855 | 109.98481 | 38930 ft | 459 kts | 49° |
| 2026-05-01 11:12 | 20.15845 | 110.03793 | 38930 ft | 459 kts | 49° |
| 2026-05-01 11:12 | 20.19803 | 110.09066 | 38933 ft | 459 kts | 49° |
| 2026-05-01 11:13 | 20.23787 | 110.14379 | 38927 ft | 459 kts | 49° |
| 2026-05-01 11:13 | 20.27759 | 110.19682 | 38942 ft | 457 kts | 49° |
| 2026-05-01 11:14 | 20.31734 | 110.24967 | 38939 ft | 457 kts | 48° |
| 2026-05-01 11:14 | 20.35751 | 110.30220 | 38939 ft | 457 kts | 48° |
| 2026-05-01 11:15 | 20.39751 | 110.35435 | 38941 ft | 458 kts | 48° |
| 2026-05-01 11:15 | 20.43774 | 110.40693 | 38941 ft | 458 kts | 48° |
| 2026-05-01 11:16 | 20.47793 | 110.45956 | 38941 ft | 458 kts | 48° |
| 2026-05-01 11:16 | 20.51131 | 110.51749 | 38942 ft | 462 kts | 65° |
| 2026-05-01 11:17 | 20.53480 | 110.58091 | 38947 ft | 464 kts | 68° |
| 2026-05-01 11:17 | 20.55650 | 110.64586 | 38942 ft | 465 kts | 69° |
| 2026-05-01 11:18 | 20.57801 | 110.71103 | 38941 ft | 466 kts | 69° |
| 2026-05-01 11:18 | 20.59972 | 110.77615 | 38939 ft | 466 kts | 69° |
| 2026-05-01 11:19 | 20.62140 | 110.84075 | 38941 ft | 465 kts | 68° |
| 2026-05-01 11:19 | 20.64319 | 110.90566 | 38944 ft | 464 kts | 68° |
| 2026-05-01 11:20 | 20.66508 | 110.97049 | 38944 ft | 464 kts | 68° |
| 2026-05-01 11:20 | 20.68703 | 111.03530 | 38947 ft | 464 kts | 68° |
| 2026-05-01 11:21 | 20.70895 | 111.10016 | 38947 ft | 464 kts | 68° |
| 2026-05-01 11:21 | 20.73068 | 111.16460 | 38949 ft | 464 kts | 68° |
| 2026-05-01 11:22 | 20.75248 | 111.22937 | 38952 ft | 463 kts | 68° |
| 2026-05-01 11:22 | 20.77422 | 111.29402 | 38952 ft | 463 kts | 68° |
| 2026-05-01 11:23 | 20.79596 | 111.35879 | 38949 ft | 463 kts | 68° |
| 2026-05-01 11:23 | 20.81751 | 111.42305 | 38952 ft | 463 kts | 68° |
| 2026-05-01 11:24 | 20.83965 | 111.48759 | 38951 ft | 461 kts | 63° |
| 2026-05-01 11:25 | 20.88578 | 111.57738 | 38957 ft | 459 kts | 57° |
| 2026-05-01 11:25 | 20.93470 | 111.66492 | 38958 ft | 459 kts | 56° |
| 2026-05-01 11:26 | 20.98376 | 111.75295 | 38958 ft | 459 kts | 57° |
| 2026-05-01 11:27 | 21.01634 | 111.81175 | 38959 ft | 460 kts | 57° |
| 2026-05-01 11:27 | 21.04892 | 111.87068 | 38960 ft | 460 kts | 57° |
| 2026-05-01 11:28 | 21.08127 | 111.92923 | 38960 ft | 460 kts | 57° |
| 2026-05-01 11:28 | 21.11378 | 111.98812 | 38960 ft | 460 kts | 57° |
| 2026-05-01 11:29 | 21.16259 | 112.07666 | 38963 ft | 460 kts | 57° |
| 2026-05-01 11:30 | 21.21197 | 112.16634 | 38958 ft | 473 kts | 57° |
| 2026-05-01 11:30 | 21.24550 | 112.22733 | 38967 ft | 483 kts | 57° |
| 2026-05-01 11:31 | 21.27991 | 112.28999 | 38960 ft | 493 kts | 57° |
| 2026-05-01 11:31 | 21.31496 | 112.35392 | 38961 ft | 502 kts | 57° |
| 2026-05-01 11:32 | 21.35064 | 112.41909 | 38961 ft | 511 kts | 57° |
| 2026-05-01 11:32 | 21.38654 | 112.48473 | 38962 ft | 513 kts | 57° |
| 2026-05-01 11:33 | 21.42256 | 112.55071 | 38963 ft | 513 kts | 57° |
| 2026-05-01 11:33 | 21.45860 | 112.61677 | 38966 ft | 513 kts | 57° |
| 2026-05-01 11:34 | 21.49463 | 112.68287 | 38969 ft | 514 kts | 57° |
| 2026-05-01 11:34 | 21.52977 | 112.74748 | 38970 ft | 491 kts | 57° |
| 2026-05-01 11:34 | 21.54673 | 112.77872 | 38970 ft | 478 kts | 57° |
| 2026-05-01 11:35 | 21.56323 | 112.80913 | 38967 ft | 465 kts | 57° |
| 2026-05-01 11:35 | 21.59531 | 112.86821 | 38968 ft | 454 kts | 57° |
| 2026-05-01 11:36 | 21.62717 | 112.92683 | 38970 ft | 455 kts | 57° |
| 2026-05-01 11:36 | 21.65961 | 112.98465 | 38968 ft | 453 kts | 51° |
| 2026-05-01 11:37 | 21.70228 | 113.03190 | 38966 ft | 426 kts | 33° |
| 2026-05-01 11:37 | 21.74922 | 113.06874 | 38972 ft | 414 kts | 31° |
| 2026-05-01 11:38 | 21.79649 | 113.10474 | 38971 ft | 418 kts | 31° |
| 2026-05-01 11:38 | 21.84355 | 113.14064 | 38968 ft | 416 kts | 31° |
| 2026-05-01 11:39 | 21.89056 | 113.17653 | 38968 ft | 413 kts | 31° |
| 2026-05-01 11:39 | 21.93748 | 113.21237 | 38966 ft | 414 kts | 31° |
| 2026-05-01 11:40 | 21.98440 | 113.24825 | 38964 ft | 414 kts | 31° |
| 2026-05-01 11:40 | 22.03103 | 113.28394 | 38967 ft | 415 kts | 31° |
| 2026-05-01 11:41 | 22.07824 | 113.32010 | 38966 ft | 417 kts | 31° |
| 2026-05-01 11:41 | 22.12526 | 113.35686 | 38963 ft | 419 kts | 36° |
| 2026-05-01 11:42 | 22.16745 | 113.40071 | 38958 ft | 423 kts | 43° |
| 2026-05-01 11:42 | 22.20673 | 113.44752 | 38960 ft | 424 kts | 44° |
| 2026-05-01 11:43 | 22.24118 | 113.49914 | 38796 ft | 428 kts | 63° |
| 2026-05-01 11:43 | 22.26555 | 113.55777 | 38422 ft | 430 kts | 60° |
| 2026-05-01 11:44 | 22.29337 | 113.61568 | 37184 ft | 437 kts | 59° |
| 2026-05-01 11:44 | 22.30743 | 113.64446 | 36652 ft | 439 kts | 59° |
| 2026-05-01 11:44 | 22.32172 | 113.67370 | 36066 ft | 442 kts | 59° |
| 2026-05-01 11:44 | 22.33609 | 113.70317 | 35476 ft | 446 kts | 60° |
| 2026-05-01 11:45 | 22.35050 | 113.73286 | 35055 ft | 445 kts | 60° |
| 2026-05-01 11:45 | 22.36468 | 113.76220 | 34897 ft | 436 kts | 60° |
| 2026-05-01 11:45 | 22.37851 | 113.79091 | 34773 ft | 426 kts | 60° |
| 2026-05-01 11:45 | 22.39206 | 113.81903 | 34667 ft | 417 kts | 60° |
| 2026-05-01 11:46 | 22.40530 | 113.84654 | 34519 ft | 409 kts | 60° |
| 2026-05-01 11:46 | 22.41813 | 113.87319 | 34334 ft | 403 kts | 60° |
| 2026-05-01 11:46 | 22.43100 | 113.89991 | 35316 ft | 399 kts | 60° |
| 2026-05-01 11:46 | 22.44377 | 113.92640 | 33627 ft | 398 kts | 60° |
| 2026-05-01 11:47 | 22.45655 | 113.95294 | 33221 ft | 397 kts | 60° |
| 2026-05-01 11:47 | 22.46922 | 113.97929 | 32768 ft | 392 kts | 60° |
| 2026-05-01 11:47 | 22.48177 | 114.00537 | 32102 ft | 392 kts | 61° |
| 2026-05-01 11:47 | 22.49470 | 114.03128 | 31513 ft | 390 kts | 56° |
| 2026-05-01 11:48 | 22.51087 | 114.05448 | 30992 ft | 383 kts | 44° |
| 2026-05-01 11:48 | 22.53039 | 114.07308 | 30495 ft | 376 kts | 32° |
| 2026-05-01 11:48 | 22.55302 | 114.08654 | 29858 ft | 370 kts | 19° |
| 2026-05-01 11:48 | 22.57763 | 114.09387 | 29120 ft | 365 kts | 5° |
| 2026-05-01 11:49 | 22.60272 | 114.09477 | 28455 ft | 358 kts | 352° |
| 2026-05-01 11:49 | 22.62685 | 114.08963 | 27822 ft | 351 kts | 339° |
| 2026-05-01 11:49 | 22.64917 | 114.07981 | 27226 ft | 345 kts | 332° |
| 2026-05-01 11:49 | 22.67077 | 114.06868 | 26664 ft | 341 kts | 331° |
| 2026-05-01 11:50 | 22.69203 | 114.05753 | 26114 ft | 337 kts | 331° |
| 2026-05-01 11:50 | 22.71279 | 114.04668 | 25553 ft | 334 kts | 331° |
| 2026-05-01 11:50 | 22.73367 | 114.03583 | 24998 ft | 331 kts | 332° |
| 2026-05-01 11:50 | 22.75439 | 114.02511 | 24460 ft | 329 kts | 332° |
| 2026-05-01 11:51 | 22.77494 | 114.01449 | 23931 ft | 326 kts | 332° |
| 2026-05-01 11:51 | 22.79532 | 114.00398 | 23326 ft | 324 kts | 331° |
| 2026-05-01 11:51 | 22.81594 | 113.99332 | 22346 ft | 333 kts | 331° |
| 2026-05-01 11:51 | 22.83715 | 113.98236 | 21841 ft | 344 kts | 331° |
| 2026-05-01 11:52 | 22.85892 | 113.97112 | 21446 ft | 348 kts | 331° |
| 2026-05-01 11:52 | 22.88047 | 113.96011 | 21078 ft | 347 kts | 333° |
| 2026-05-01 11:52 | 22.90330 | 113.95165 | 20688 ft | 348 kts | 344° |
| 2026-05-01 11:52 | 22.92693 | 113.94608 | 20316 ft | 346 kts | 340° |
| 2026-05-01 11:53 | 22.94839 | 113.93554 | 19941 ft | 335 kts | 320° |
| 2026-05-01 11:53 | 22.96413 | 113.91766 | 19580 ft | 325 kts | 298° |
| 2026-05-01 11:53 | 22.97192 | 113.89519 | 19292 ft | 315 kts | 276° |
| 2026-05-01 11:53 | 22.97048 | 113.87228 | 19281 ft | 299 kts | 253° |
| 2026-05-01 11:54 | 22.96074 | 113.85302 | 19286 ft | 289 kts | 230° |
| 2026-05-01 11:54 | 22.94449 | 113.84040 | 19287 ft | 292 kts | 206° |
| 2026-05-01 11:54 | 22.92462 | 113.83640 | 19285 ft | 302 kts | 182° |
| 2026-05-01 11:54 | 22.90397 | 113.84183 | 19282 ft | 314 kts | 158° |
| 2026-05-01 11:55 | 22.88640 | 113.85625 | 19284 ft | 324 kts | 134° |
| 2026-05-01 11:55 | 22.87505 | 113.87746 | 19285 ft | 330 kts | 110° |
| 2026-05-01 11:55 | 22.87194 | 113.90212 | 19285 ft | 333 kts | 85° |
| 2026-05-01 11:55 | 22.87766 | 113.92633 | 19289 ft | 332 kts | 61° |
| 2026-05-01 11:56 | 22.89124 | 113.94613 | 19286 ft | 326 kts | 37° |
| 2026-05-01 11:56 | 22.91034 | 113.95846 | 19286 ft | 317 kts | 13° |
| 2026-05-01 11:56 | 22.93146 | 113.96270 | 19289 ft | 312 kts | 359° |
| 2026-05-01 11:56 | 22.95311 | 113.96391 | 19289 ft | 312 kts | 356° |
| 2026-05-01 11:57 | 22.97472 | 113.96344 | 19223 ft | 310 kts | 349° |
| 2026-05-01 11:57 | 22.99556 | 113.95883 | 19001 ft | 304 kts | 340° |
| 2026-05-01 11:57 | 23.01590 | 113.95267 | 18778 ft | 302 kts | 338° |
| 2026-05-01 11:57 | 23.03598 | 113.94607 | 18556 ft | 302 kts | 338° |
| 2026-05-01 11:58 | 23.05689 | 113.93892 | 18333 ft | 332 kts | 337° |
| 2026-05-01 11:58 | 23.07989 | 113.93095 | 18082 ft | 356 kts | 338° |
| 2026-05-01 11:58 | 23.12872 | 113.91958 | 17318 ft | 361 kts | 348° |
| 2026-05-01 11:59 | 23.15360 | 113.91619 | 16887 ft | 358 kts | 348° |
| 2026-05-01 11:59 | 23.17784 | 113.91299 | 16469 ft | 355 kts | 348° |
| 2026-05-01 11:59 | 23.20232 | 113.90972 | 16045 ft | 353 kts | 348° |
| 2026-05-01 12:00 | 23.25065 | 113.90316 | 15189 ft | 348 kts | 348° |
| 2026-05-01 12:00 | 23.27465 | 113.89987 | 14752 ft | 346 kts | 348° |
| 2026-05-01 12:00 | 23.32211 | 113.89334 | 13908 ft | 341 kts | 348° |
| 2026-05-01 12:01 | 23.34530 | 113.89015 | 13460 ft | 339 kts | 348° |
| 2026-05-01 12:01 | 23.36862 | 113.88694 | 13023 ft | 337 kts | 348° |
| 2026-05-01 12:01 | 23.39180 | 113.88375 | 12607 ft | 335 kts | 348° |
| 2026-05-01 12:01 | 23.41481 | 113.88058 | 12194 ft | 332 kts | 348° |
| 2026-05-01 12:02 | 23.43769 | 113.87742 | 11792 ft | 330 kts | 348° |
| 2026-05-01 12:02 | 23.46041 | 113.87427 | 11372 ft | 328 kts | 348° |
| 2026-05-01 12:02 | 23.48302 | 113.87114 | 10977 ft | 326 kts | 348° |
| 2026-05-01 12:02 | 23.50538 | 113.86806 | 10614 ft | 321 kts | 348° |
| 2026-05-01 12:03 | 23.52712 | 113.86507 | 10534 ft | 308 kts | 348° |
| 2026-05-01 12:03 | 23.54768 | 113.86225 | 10422 ft | 297 kts | 348° |
| 2026-05-01 12:03 | 23.56786 | 113.85949 | 10276 ft | 288 kts | 348° |
| 2026-05-01 12:03 | 23.58742 | 113.85680 | 10164 ft | 279 kts | 348° |
| 2026-05-01 12:04 | 23.60645 | 113.85364 | 9875 ft | 277 kts | 341° |
| 2026-05-01 12:04 | 23.62397 | 113.84551 | 9489 ft | 271 kts | 321° |
| 2026-05-01 12:04 | 23.63682 | 113.83109 | 9181 ft | 263 kts | 299° |
| 2026-05-01 12:04 | 23.64388 | 113.81296 | 8887 ft | 259 kts | 284° |
| 2026-05-01 12:05 | 23.64850 | 113.79397 | 8592 ft | 259 kts | 282° |
| 2026-05-01 12:05 | 23.65692 | 113.75625 | 8051 ft | 256 kts | 282° |
| 2026-05-01 12:05 | 23.66111 | 113.73783 | 7959 ft | 245 kts | 282° |
| 2026-05-01 12:06 | 23.66516 | 113.72019 | 7875 ft | 235 kts | 282° |
| 2026-05-01 12:06 | 23.66908 | 113.70321 | 7777 ft | 226 kts | 282° |
| 2026-05-01 12:06 | 23.67288 | 113.68669 | 7693 ft | 225 kts | 282° |
| 2026-05-01 12:06 | 23.67671 | 113.67008 | 7562 ft | 227 kts | 282° |
| 2026-05-01 12:07 | 23.68056 | 113.65340 | 7357 ft | 226 kts | 282° |
| 2026-05-01 12:07 | 23.68443 | 113.63676 | 7142 ft | 226 kts | 282° |
| 2026-05-01 12:07 | 23.68828 | 113.62038 | 6925 ft | 226 kts | 282° |
| 2026-05-01 12:07 | 23.69214 | 113.60376 | 6723 ft | 227 kts | 282° |
| 2026-05-01 12:08 | 23.69596 | 113.58702 | 6516 ft | 227 kts | 282° |
| 2026-05-01 12:08 | 23.69983 | 113.57034 | 6299 ft | 227 kts | 282° |
| 2026-05-01 12:08 | 23.70374 | 113.55367 | 6077 ft | 226 kts | 282° |
| 2026-05-01 12:08 | 23.70759 | 113.53698 | 5854 ft | 227 kts | 282° |
| 2026-05-01 12:09 | 23.71147 | 113.52020 | 5629 ft | 229 kts | 281° |
| 2026-05-01 12:09 | 23.71537 | 113.50337 | 5413 ft | 227 kts | 281° |
| 2026-05-01 12:09 | 23.71920 | 113.48689 | 5190 ft | 222 kts | 281° |
| 2026-05-01 12:09 | 23.72290 | 113.47089 | 4979 ft | 219 kts | 281° |
| 2026-05-01 12:10 | 23.72655 | 113.45507 | 4773 ft | 212 kts | 280° |
| 2026-05-01 12:10 | 23.72915 | 113.42385 | 4343 ft | 203 kts | 262° |
| 2026-05-01 12:10 | 23.72429 | 113.40995 | 4123 ft | 195 kts | 227° |
| 2026-05-01 12:11 | 23.70188 | 113.39458 | 3686 ft | 191 kts | 198° |
| 2026-05-01 12:11 | 23.68913 | 113.39049 | 3460 ft | 191 kts | 193° |
| 2026-05-01 12:11 | 23.67624 | 113.38697 | 3255 ft | 191 kts | 193° |
| 2026-05-01 12:12 | 23.66350 | 113.38353 | 3030 ft | 191 kts | 193° |
| 2026-05-01 12:12 | 23.65071 | 113.38005 | 2803 ft | 187 kts | 193° |
| 2026-05-01 12:12 | 23.63828 | 113.37664 | 2594 ft | 182 kts | 193° |
| 2026-05-01 12:12 | 23.62618 | 113.37332 | 2503 ft | 178 kts | 193° |
| 2026-05-01 12:13 | 23.61412 | 113.37001 | 2498 ft | 179 kts | 192° |
| 2026-05-01 12:13 | 23.60200 | 113.36670 | 2502 ft | 180 kts | 193° |
| 2026-05-01 12:13 | 23.58986 | 113.36340 | 2493 ft | 180 kts | 193° |
| 2026-05-01 12:13 | 23.57770 | 113.36009 | 2499 ft | 181 kts | 193° |
| 2026-05-01 12:14 | 23.56570 | 113.35684 | 2499 ft | 179 kts | 193° |
| 2026-05-01 12:14 | 23.55368 | 113.35358 | 2492 ft | 173 kts | 193° |
| 2026-05-01 12:14 | 23.54281 | 113.35064 | 2498 ft | 147 kts | 193° |
| 2026-05-01 12:14 | 23.53319 | 113.34803 | 2499 ft | 141 kts | 193° |
| 2026-05-01 12:15 | 23.52383 | 113.34548 | 2388 ft | 138 kts | 193° |
| 2026-05-01 12:15 | 23.51454 | 113.34296 | 2201 ft | 138 kts | 193° |
| 2026-05-01 12:15 | 23.50526 | 113.34045 | 1978 ft | 137 kts | 193° |
| 2026-05-01 12:15 | 23.49606 | 113.33795 | 1787 ft | 136 kts | 193° |
| 2026-05-01 12:16 | 23.48704 | 113.33550 | 1613 ft | 136 kts | 193° |
| 2026-05-01 12:16 | 23.47789 | 113.33301 | 1433 ft | 135 kts | 193° |
| 2026-05-01 12:16 | 23.46875 | 113.33053 | 1253 ft | 135 kts | 193° |
| 2026-05-01 12:16 | 23.45963 | 113.32806 | 1088 ft | 135 kts | 193° |
| 2026-05-01 12:17 | 23.45054 | 113.32559 | 922 ft | 135 kts | 193° |
| 2026-05-01 12:17 | 23.44144 | 113.32312 | 761 ft | 134 kts | 193° |
| 2026-05-01 12:17 | 23.43236 | 113.32066 | 596 ft | 135 kts | 193° |
| 2026-05-01 12:17 | 23.42327 | 113.31820 | 416 ft | 134 kts | 193° |
| 2026-05-01 12:18 | 23.41434 | 113.31577 | 244 ft | 134 kts | 193° |
| 2026-05-01 12:18 | 23.40534 | 113.31329 | 55 ft | 130 kts | 192° |
| 2026-05-01 12:18 | 23.39862 | 113.31160 | 52 ft | 60 kts | 193° |
| 2026-05-01 12:18 | 23.39720 | 113.31120 | 53 ft | 2 kts | 195° |
| 2026-05-01 12:19 | 23.39663 | 113.31103 | 52 ft | 12 kts | 195° |
| 2026-05-01 12:19 | 23.39572 | 113.31077 | 52 ft | 15 kts | 194° |
| 2026-05-01 12:19 | 23.39463 | 113.31048 | 51 ft | 17 kts | 193° |
| 2026-05-01 12:19 | 23.39340 | 113.31014 | 53 ft | 19 kts | 195° |
| 2026-05-01 12:20 | 23.39200 | 113.30977 | 53 ft | 22 kts | 194° |
| 2026-05-01 12:20 | 23.39077 | 113.30936 | 52 ft | 16 kts | 203° |
| 2026-05-01 12:20 | 23.38989 | 113.30876 | 52 ft | 13 kts | 217° |
| 2026-05-01 12:20 | 23.38930 | 113.30820 | 56 ft | 11 kts | 222° |
| 2026-05-01 12:21 | 23.38907 | 113.30797 | 54 ft | 0 kts | 221° |
| 2026-05-01 12:21 | 23.38900 | 113.30791 | 53 ft | 3 kts | 221° |
| 2026-05-01 12:21 | 23.38872 | 113.30763 | 52 ft | 8 kts | 221° |
| 2026-05-01 12:22 | 23.38830 | 113.30717 | 52 ft | 9 kts | 237° |
| 2026-05-01 12:22 | 23.38823 | 113.30639 | 52 ft | 12 kts | 284° |
| 2026-05-01 12:22 | 23.38818 | 113.30591 | 52 ft | 2 kts | 223° |
| 2026-05-01 12:22 | 23.38795 | 113.30571 | 54 ft | 6 kts | 215° |
| 2026-05-01 12:23 | 23.38746 | 113.30556 | 16 ft | 9 kts | 192° |
| 2026-05-01 12:23 | 23.38675 | 113.30535 | 51 ft | 12 kts | 195° |
| 2026-05-01 12:23 | 23.38582 | 113.30509 | 52 ft | 15 kts | 193° |
| 2026-05-01 12:23 | 23.38468 | 113.30479 | 54 ft | 18 kts | 193° |
| 2026-05-01 12:24 | 23.38382 | 113.30412 | 51 ft | 14 kts | 255° |
| 2026-05-01 12:24 | 23.38393 | 113.30327 | 51 ft | 11 kts | 288° |
| 2026-05-01 12:24 | 23.38441 | 113.30264 | 55 ft | 10 kts | 321° |
| 2026-05-01 12:24 | 23.38459 | 113.30194 | 51 ft | 11 kts | 252° |
| 2026-05-01 12:25 | 23.38429 | 113.30155 | 51 ft | 0 kts | 225° |